»·PEaware :: AAL102 KPHX-KSBA

AAL102 :: KPHX-KSBA

FLIGHT INFORMATION

Flight Status: Arrived
Operator:
American Airlines
More flights by this operator :: More flights under this callsign
Pilot: Cole F. (14495)
Aircraft: AIRBUS A320
(A320)
More flights by this aircraft type
Origin: KPHX Phoenix Sky Harbor Intl
United States
Destination: KSBA Santa Barbara Mun
United States
More flights between these airports :: More routes between these airports
Route: KEENS2 HRRBR CURIV J212 PSP PORPS PITBL1
File this flight plan on PilotEdge
Remarks:
Altitude:
(Current/Filed)
36,000ft
Speed:
(Current/Filed)
447kts
Departed: 08-Feb-19 05:34 PM
Arrived: 08-Feb-19 06:47 PM
Distance/Time
Traveled:
395nm/1:13
Distance/Time
To Go:
Arrived

Flight Plot

Page will automatically refresh every two minutes.

Flight plan parsing failed; only flown route is shown


Map Options




Map Legend


Flown Route
Filed Route
Departure Airport
Arrival Airport
Navaid (VOR, NDB)
Fix

Horizontal Profiles

Position Reports

Time Latitude Longitude Heading Altitude Ground
Speed
08-Feb-19 17:09 33.437176 -111.999799 90 1118ft 0kts
08-Feb-19 17:10 33.437176 -111.999799 90 1118ft 0kts
08-Feb-19 17:11 33.437176 -111.999799 90 1118ft 0kts
08-Feb-19 17:12 33.437176 -111.999799 90 1118ft 0kts
08-Feb-19 17:13 33.437176 -111.999799 90 1118ft 0kts
08-Feb-19 17:14 33.437176 -111.999799 90 1118ft 0kts
08-Feb-19 17:15 33.437176 -111.999799 90 1118ft 0kts
08-Feb-19 17:16 33.437176 -111.999799 90 1118ft 0kts
08-Feb-19 17:17 33.437176 -111.999799 90 1118ft 0kts
08-Feb-19 17:18 33.437176 -111.999799 90 1118ft 0kts
08-Feb-19 17:19 33.437176 -111.999799 90 1118ft 0kts
08-Feb-19 17:20 33.437176 -111.999799 90 1118ft 0kts
08-Feb-19 17:21 33.437176 -111.999866 90 1118ft 0kts
08-Feb-19 17:22 33.436849 -112.000308 2 1118ft 0kts
08-Feb-19 17:23 33.437100 -112.000305 359 1118ft 0kts
08-Feb-19 17:24 33.437100 -112.000305 359 1118ft 0kts
08-Feb-19 17:25 33.438187 -112.000333 357 1118ft 5kts
08-Feb-19 17:26 33.439356 -112.000801 346 1118ft 6kts
08-Feb-19 17:27 33.439731 -111.997989 90 1118ft 16kts
08-Feb-19 17:28 33.439730 -111.992904 90 1118ft 7kts
08-Feb-19 17:29 33.439778 -111.992480 59 1118ft 0kts
08-Feb-19 17:30 33.439778 -111.992480 59 1118ft 0kts
08-Feb-19 17:31 33.439778 -111.992480 59 1118ft 0kts
08-Feb-19 17:32 33.440823 -111.992779 269 1118ft 7kts
08-Feb-19 17:33 33.440593 -112.031315 261 2169ft 170kts
08-Feb-19 17:34 33.424246 -112.090531 248 4524ft 218kts
08-Feb-19 17:35 33.399683 -112.168575 249 6987ft 270kts
08-Feb-19 17:36 33.399570 -112.257051 278 10148ft 280kts
08-Feb-19 17:37 33.414461 -112.358030 277 11865ft 334kts
08-Feb-19 17:38 33.430751 -112.468519 276 14498ft 341kts
08-Feb-19 17:39 33.447225 -112.580842 275 16918ft 345kts
08-Feb-19 17:40 33.451359 -112.690310 267 18999ft 346kts
08-Feb-19 17:41 33.454389 -112.806308 274 20985ft 354kts
08-Feb-19 17:42 33.475722 -112.922280 277 22885ft 358kts
08-Feb-19 17:43 33.497430 -113.038867 277 24609ft 359kts
08-Feb-19 17:44 33.519132 -113.155981 277 26060ft 363kts
08-Feb-19 17:45 33.541003 -113.274642 277 27369ft 367kts
08-Feb-19 17:46 33.562987 -113.394594 277 28542ft 371kts
08-Feb-19 17:47 33.585134 -113.516141 278 29595ft 375kts
08-Feb-19 17:48 33.608032 -113.638775 278 30530ft 379kts
08-Feb-19 17:49 33.628324 -113.748054 278 31446ft 379kts
08-Feb-19 17:50 33.650856 -113.870157 278 32728ft 371kts
08-Feb-19 17:51 33.672955 -113.990410 278 33773ft 366kts
08-Feb-19 17:52 33.694627 -114.109021 278 34576ft 364kts
08-Feb-19 17:53 33.716164 -114.227563 278 35220ft 363kts
08-Feb-19 17:54 33.737540 -114.345921 278 35793ft 363kts
08-Feb-19 17:55 33.758756 -114.464106 278 36088ft 362kts
08-Feb-19 17:56 33.775359 -114.583002 272 36089ft 360kts
08-Feb-19 17:57 33.782333 -114.703074 272 36095ft 361kts
08-Feb-19 17:58 33.789245 -114.823541 272 36111ft 362kts
08-Feb-19 17:59 33.796030 -114.944001 272 36104ft 361kts
08-Feb-19 18:00 33.802690 -115.064350 272 36086ft 360kts
08-Feb-19 18:01 33.809215 -115.184307 271 36070ft 360kts
08-Feb-19 18:02 33.815637 -115.304521 271 36082ft 360kts
08-Feb-19 18:03 33.821921 -115.424394 271 36104ft 360kts
08-Feb-19 18:04 33.819196 -115.544057 272 36123ft 361kts
08-Feb-19 18:05 33.829773 -115.663824 272 36126ft 361kts
08-Feb-19 18:06 33.837261 -115.781597 271 36121ft 362kts
08-Feb-19 18:07 33.843827 -115.902692 271 36120ft 363kts
08-Feb-19 18:08 33.850074 -116.023398 271 36106ft 362kts
08-Feb-19 18:09 33.856179 -116.144257 271 36086ft 361kts
08-Feb-19 18:10 33.862153 -116.264983 271 36079ft 361kts
08-Feb-19 18:11 33.867987 -116.385261 271 36081ft 361kts
08-Feb-19 18:12 33.888137 -116.503791 281 36087ft 365kts
08-Feb-19 18:13 33.916620 -116.620964 281 36084ft 365kts
08-Feb-19 18:14 33.944582 -116.736257 281 36092ft 366kts
08-Feb-19 18:15 33.973172 -116.854545 281 36104ft 367kts
08-Feb-19 18:16 34.001466 -116.972407 281 36106ft 367kts
08-Feb-19 18:17 34.029709 -117.090587 281 36105ft 365kts
08-Feb-19 18:18 34.057637 -117.207984 280 36087ft 362kts
08-Feb-19 18:19 34.085141 -117.324136 281 36066ft 360kts
08-Feb-19 18:20 34.112630 -117.440740 280 36053ft 359kts
08-Feb-19 18:21 34.139776 -117.556415 280 36050ft 359kts
08-Feb-19 18:22 34.166934 -117.672680 280 35745ft 360kts
08-Feb-19 18:23 34.193625 -117.787435 280 34714ft 347kts
08-Feb-19 18:24 34.218761 -117.896076 279 33352ft 324kts
08-Feb-19 18:25 34.242311 -117.998306 279 32041ft 314kts
08-Feb-19 18:26 34.265553 -118.099531 279 30705ft 313kts
08-Feb-19 18:27 34.289496 -118.199877 280 29584ft 307kts
08-Feb-19 18:28 34.314016 -118.298101 280 28663ft 304kts
08-Feb-19 18:29 34.338209 -118.395661 279 27749ft 301kts
08-Feb-19 18:30 34.362116 -118.492471 279 26841ft 299kts
08-Feb-19 18:31 34.385765 -118.588616 279 25939ft 297kts
08-Feb-19 18:32 34.408885 -118.682969 279 25056ft 295kts
08-Feb-19 18:33 34.430965 -118.780178 269 23541ft 307kts
08-Feb-19 18:34 34.416859 -118.881393 256 21567ft 305kts
08-Feb-19 18:35 34.399678 -118.981241 256 19572ft 302kts
08-Feb-19 18:36 34.382471 -119.081020 256 17400ft 298kts
08-Feb-19 18:37 34.365861 -119.180020 256 15137ft 304kts
08-Feb-19 18:38 34.349534 -119.276748 256 13198ft 292kts
08-Feb-19 18:39 34.333206 -119.372857 256 11278ft 292kts
08-Feb-19 18:40 34.347771 -119.466712 283 9333ft 271kts
08-Feb-19 18:41 34.369614 -119.551530 300 6940ft 263kts
08-Feb-19 18:43 34.417302 -119.616869 306 4770ft 252kts
08-Feb-19 18:44 34.428649 -119.696135 272 2925ft 236kts
08-Feb-19 18:45 34.429276 -119.767316 269 1600ft 181kts
08-Feb-19 18:46 34.428094 -119.822944 269 249ft 139kts
08-Feb-19 18:47 34.427507 -119.851220 246 21ft 10kts

Navigation Log

Ident Type
Flight plan parsing failed, navigation log unavailable